Time;durP1;ratioP1;P1;durP2;ratioP2;P2;SDS_P1;SDS_P2;PMS_P1;PMS_P2;Temp;Humidity;BMP_temperature;BMP_pressure;BME280_temperature;BME280_humidity;BME280_pressure;Samples;Min_cycle;Max_cycle;Signal;HPM_P1;HPM_P2
2024/04/01 00:01:38;;;;;;;10.93;5.75;;;;;;;13.00;100.00;99033.56;4910372;28;20097;-69
2024/04/01 00:04:05;;;;;;;9.57;5.60;;;;;;;12.97;100.00;99029.41;4936482;29;20114;-69
2024/04/01 00:06:31;;;;;;;9.05;5.53;;;;;;;13.00;100.00;99031.75;4896844;29;20074;-68
2024/04/01 00:08:58;;;;;;;8.85;5.40;;;;;;;12.98;100.00;99025.72;4896710;29;20067;-69
2024/04/01 00:11:24;;;;;;;8.80;5.20;;;;;;;13.04;100.00;99025.00;4896980;29;20049;-68
2024/04/01 00:13:51;;;;;;;10.68;4.72;;;;;;;13.04;100.00;99021.50;4896768;29;20081;-68
2024/04/01 00:16:17;;;;;;;10.40;5.07;;;;;;;12.99;100.00;99024.72;4931583;29;20135;-69
2024/04/01 00:18:44;;;;;;;15.38;6.30;;;;;;;12.96;100.00;99022.41;4918150;29;20059;-68
2024/04/01 00:21:11;;;;;;;9.43;6.22;;;;;;;12.99;100.00;99014.03;4918334;29;20094;-69
2024/04/01 00:23:37;;;;;;;8.85;5.30;;;;;;;12.98;100.00;99008.91;4918477;29;20039;-69
2024/04/01 00:26:03;;;;;;;8.10;5.05;;;;;;;12.96;100.00;99008.28;4902868;29;20098;-69
2024/04/01 00:28:32;;;;;;;6.75;4.85;;;;;;;13.05;100.00;99002.66;4902904;29;20055;-69
2024/04/01 00:31:00;;;;;;;11.93;5.65;;;;;;;12.96;100.00;99000.28;4946242;29;20507;-68
2024/04/01 00:33:26;;;;;;;13.00;4.93;;;;;;;12.94;100.00;99007.63;4914437;29;20055;-70
2024/04/01 00:35:52;;;;;;;11.10;6.15;;;;;;;12.85;100.00;98998.94;4899696;29;20058;-68
2024/04/01 00:38:19;;;;;;;9.02;5.70;;;;;;;12.87;100.00;99007.56;4880205;29;20395;-68
2024/04/01 00:40:46;;;;;;;10.18;5.22;;;;;;;12.85;100.00;98993.63;4872475;29;20055;-67
2024/04/01 00:43:12;;;;;;;9.07;5.80;;;;;;;12.64;100.00;98996.22;4917924;29;20052;-68
2024/04/01 00:45:44;;;;;;;7.88;5.55;;;;;;;12.92;100.00;99001.66;4902341;29;20336;-68
2024/04/01 00:48:13;;;;;;;11.70;6.40;;;;;;;12.83;100.00;98997.47;4902839;29;20066;-68
2024/04/01 00:50:46;;;;;;;13.18;6.68;;;;;;;12.79;100.00;99001.53;4902293;29;20075;-68
2024/04/01 00:53:13;;;;;;;12.25;6.55;;;;;;;12.75;100.00;99003.72;4902022;29;20062;-68
2024/04/01 00:55:41;;;;;;;12.40;6.47;;;;;;;12.82;100.00;98990.50;4886598;29;20063;-68
2024/04/01 00:58:09;;;;;;;13.52;6.30;;;;;;;12.80;100.00;99008.50;4902023;29;20192;-68
2024/04/01 01:00:36;;;;;;;13.40;5.53;;;;;;;12.73;100.00;98987.09;4886580;29;20119;-68
2024/04/01 01:03:03;;;;;;;12.38;5.85;;;;;;;12.74;100.00;98987.94;4917931;29;20054;-68
2024/04/01 01:05:33;;;;;;;13.95;6.28;;;;;;;12.78;100.00;98998.03;4917755;29;20055;-68
2024/04/01 01:08:01;;;;;;;12.27;6.63;;;;;;;12.79;100.00;98983.69;4902086;29;20062;-68
2024/04/01 01:10:28;;;;;;;15.38;6.20;;;;;;;12.72;100.00;98985.47;4941997;28;20767;-68
2024/04/01 01:12:55;;;;;;;11.57;7.05;;;;;;;12.78;100.00;98979.38;4959619;28;20076;-68
2024/04/01 01:15:24;;;;;;;13.75;6.43;;;;;;;12.88;100.00;98985.25;4942782;28;20043;-68
2024/04/01 01:17:52;;;;;;;11.75;6.60;;;;;;;12.91;100.00;98984.88;4958272;28;20374;-69
2024/04/01 01:20:20;;;;;;;14.73;6.25;;;;;;;12.86;100.00;98989.94;4947465;28;20085;-68
2024/04/01 01:22:47;;;;;;;10.07;6.13;;;;;;;12.80;100.00;98979.19;4981195;28;20042;-68
2024/04/01 01:25:14;;;;;;;10.35;5.75;;;;;;;12.83;100.00;98978.81;4997701;28;20148;-68
2024/04/01 01:27:44;;;;;;;12.43;6.47;;;;;;;12.93;100.00;98974.00;4978376;28;20488;-69
2024/04/01 01:30:16;;;;;;;9.30;5.68;;;;;;;12.89;100.00;98972.72;4945836;28;20168;-69
2024/04/01 01:32:45;;;;;;;11.65;5.80;;;;;;;12.95;100.00;98972.81;4979089;28;20062;-68
2024/04/01 01:35:22;;;;;;;15.70;6.40;;;;;;;12.94;100.00;98978.31;5000906;28;20052;-68
2024/04/01 01:37:50;;;;;;;11.40;6.13;;;;;;;12.81;100.00;98968.34;4995681;28;20451;-69
2024/04/01 01:40:17;;;;;;;10.45;6.43;;;;;;;12.84;100.00;98973.28;4981658;28;20052;-68
2024/04/01 01:42:45;;;;;;;11.95;6.68;;;;;;;12.85;100.00;98977.63;4965846;28;20399;-68
2024/04/01 01:45:14;;;;;;;11.32;6.03;;;;;;;12.85;100.00;98974.97;4974625;28;20493;-68
2024/04/01 01:47:40;;;;;;;10.52;6.13;;;;;;;12.80;100.00;98979.19;4939180;28;20149;-68
2024/04/01 01:50:08;;;;;;;10.95;6.43;;;;;;;12.84;100.00;98967.97;4939126;28;20065;-68
2024/04/01 01:52:36;;;;;;;16.55;6.10;;;;;;;12.73;100.00;98971.09;4939123;28;20054;-68
2024/04/01 01:55:04;;;;;;;13.05;6.47;;;;;;;12.82;100.00;98969.19;4919845;29;20073;-69
2024/04/01 01:57:33;;;;;;;12.38;5.80;;;;;;;12.78;100.00;98974.03;4920794;28;20043;-69
2024/04/01 02:00:05;;;;;;;14.70;6.47;;;;;;;12.77;100.00;98976.91;4955229;28;20587;-68
2024/04/01 02:02:32;;;;;;;11.95;6.03;;;;;;;12.75;100.00;98978.91;4919931;29;20090;-70
2024/04/01 02:05:00;;;;;;;13.50;5.88;;;;;;;12.69;100.00;98975.19;4920944;29;20102;-68
2024/04/01 02:07:26;;;;;;;15.38;6.18;;;;;;;12.65;100.00;98960.59;4920449;28;20059;-69
2024/04/01 02:09:53;;;;;;;13.48;6.47;;;;;;;12.52;100.00;98970.25;4919803;29;20047;-68
2024/04/01 02:12:20;;;;;;;10.48;6.10;;;;;;;12.50;100.00;98953.63;4938606;28;20081;-68
2024/04/01 02:14:47;;;;;;;19.83;6.10;;;;;;;12.48;100.00;98960.97;4922964;28;20055;-68
2024/04/01 02:17:13;;;;;;;8.45;5.50;;;;;;;12.64;100.00;98948.25;4956204;28;20468;-68
2024/04/01 02:19:42;;;;;;;10.43;4.93;;;;;;;12.77;100.00;98958.25;4980358;28;20405;-70
2024/04/01 02:22:12;;;;;;;16.40;6.20;;;;;;;12.64;100.00;98942.94;4980678;28;20424;-68
2024/04/01 02:24:41;;;;;;;19.63;6.30;;;;;;;12.72;100.00;98953.47;4981521;28;20053;-68
2024/04/01 02:27:09;;;;;;;21.90;7.32;;;;;;;12.60;100.00;98962.97;4964785;28;20053;-69
2024/04/01 02:29:36;;;;;;;16.58;6.43;;;;;;;12.63;100.00;98945.78;4997515;28;20135;-67
2024/04/01 02:32:04;;;;;;;12.63;6.45;;;;;;;12.66;100.00;98938.25;5009477;28;20046;-71
2024/04/01 02:34:31;;;;;;;15.27;6.10;;;;;;;12.67;100.00;98941.75;5009870;28;20054;-69
2024/04/01 02:36:59;;;;;;;9.20;5.40;;;;;;;12.69;100.00;98945.03;4976712;28;20050;-68
2024/04/01 02:39:24;;;;;;;13.95;5.97;;;;;;;12.65;100.00;98931.28;4977266;28;20089;-68
2024/04/01 02:41:52;;;;;;;20.75;6.10;;;;;;;12.79;100.00;98929.59;4976995;28;20050;-67
2024/04/01 02:44:18;;;;;;;9.70;5.45;;;;;;;12.74;100.00;98924.00;4993208;28;20050;-68
2024/04/01 02:46:45;;;;;;;14.02;6.38;;;;;;;12.75;100.00;98917.63;4977286;28;20057;-69
2024/04/01 02:49:12;;;;;;;17.13;6.20;;;;;;;12.79;100.00;98911.72;4977249;28;20080;-69
2024/04/01 02:51:38;;;;;;;11.38;5.53;;;;;;;12.81;100.00;98920.38;4979558;28;20045;-69
2024/04/01 02:54:07;;;;;;;14.25;6.25;;;;;;;12.88;100.00;98921.28;4989878;28;20050;-70
2024/04/01 02:56:33;;;;;;;13.48;5.88;;;;;;;12.79;100.00;98918.94;4957992;28;20089;-69
2024/04/01 02:59:04;;;;;;;16.77;5.90;;;;;;;12.89;100.00;98911.44;4957874;28;20101;-70
2024/04/01 03:01:31;;;;;;;17.20;6.60;;;;;;;12.79;100.00;98916.25;4974312;28;20038;-68
2024/04/01 03:04:01;;;;;;;13.55;6.30;;;;;;;12.93;100.00;98899.38;4957439;28;20385;-69
2024/04/01 03:06:30;;;;;;;9.57;5.40;;;;;;;13.00;100.00;98906.47;4973524;28;20034;-69
2024/04/01 03:08:58;;;;;;;12.60;5.45;;;;;;;12.95;100.00;98903.50;4973683;28;20061;-70
2024/04/01 03:11:24;;;;;;;10.23;5.32;;;;;;;12.95;100.00;98895.50;4989731;28;20445;-65
2024/04/01 03:13:50;;;;;;;11.35;5.00;;;;;;;13.01;100.00;98897.44;4973554;28;20077;-66
2024/04/01 03:16:19;;;;;;;12.23;5.85;;;;;;;12.97;100.00;98892.66;5005968;28;20057;-67
2024/04/01 03:18:45;;;;;;;12.95;5.35;;;;;;;12.99;100.00;98901.28;4990315;28;20097;-80
2024/04/01 03:21:12;;;;;;;10.55;5.18;;;;;;;13.04;100.00;98888.22;4974588;28;20042;-75
2024/04/01 03:23:38;;;;;;;11.32;5.30;;;;;;;12.98;100.00;98884.47;4979295;28;20146;-78
2024/04/01 03:26:04;;;;;;;14.65;6.05;;;;;;;12.94;100.00;98885.03;5007721;28;20113;-81
2024/04/01 03:28:30;;;;;;;12.63;5.68;;;;;;;12.98;100.00;98878.28;5008696;28;20052;-81
2024/04/01 03:30:55;;;;;;;14.82;5.82;;;;;;;12.98;100.00;98883.63;5011018;28;20042;-79
2024/04/01 03:33:21;;;;;;;11.95;5.80;;;;;;;12.95;100.00;98882.19;5035320;28;20100;-82
2024/04/01 03:35:54;;;;;;;16.45;5.80;;;;;;;13.10;100.00;98882.16;5035690;28;20132;-80
2024/04/01 03:38:19;;;;;;;13.77;5.50;;;;;;;12.97;100.00;98885.50;5037830;28;20045;-77
2024/04/01 03:40:45;;;;;;;14.35;5.22;;;;;;;13.02;100.00;98885.75;5024918;28;20045;-80
2024/04/01 03:43:11;;;;;;;11.25;5.53;;;;;;;13.06;100.00;98880.88;5058127;28;20433;-80
2024/04/01 03:45:37;;;;;;;14.65;6.03;;;;;;;13.03;100.00;98879.41;4987099;28;20037;-73
2024/04/01 03:48:03;;;;;;;12.80;5.85;;;;;;;13.06;100.00;98878.19;5002283;28;20214;-77
2024/04/01 03:50:30;;;;;;;15.52;5.97;;;;;;;13.13;100.00;98881.78;5034692;28;20060;-77
2024/04/01 03:52:57;;;;;;;14.68;5.78;;;;;;;13.16;100.00;98882.19;5035280;28;20569;-80
2024/04/01 03:55:23;;;;;;;19.15;8.05;;;;;;;13.20;100.00;98870.13;4989773;28;20472;-82
2024/04/01 03:57:49;;;;;;;11.75;5.53;;;;;;;13.27;100.00;98876.31;5036178;28;20045;-78
2024/04/01 04:00:15;;;;;;;13.60;5.57;;;;;;;13.24;100.00;98868.72;5018182;28;20549;-79
2024/04/01 04:02:45;;;;;;;10.55;5.00;;;;;;;13.25;100.00;98867.69;5000876;28;20486;-78
2024/04/01 04:05:11;;;;;;;13.65;5.70;;;;;;;13.26;100.00;98877.34;5018059;28;20459;-79
2024/04/01 04:07:37;;;;;;;15.38;6.03;;;;;;;13.20;100.00;98891.47;5017288;28;20099;-77
2024/04/01 04:10:04;;;;;;;13.90;5.78;;;;;;;13.28;100.00;98874.50;4999818;28;20053;-78
2024/04/01 04:12:34;;;;;;;13.23;5.40;;;;;;;13.19;100.00;98865.81;4998483;28;20045;-77
2024/04/01 04:15:03;;;;;;;16.38;6.00;;;;;;;13.29;100.00;98887.63;5017525;28;20053;-80
2024/04/01 04:17:31;;;;;;;12.93;6.00;;;;;;;13.26;100.00;98884.53;5055648;28;20044;-80
2024/04/01 04:19:57;;;;;;;19.83;5.50;;;;;;;13.33;100.00;98877.41;5058898;28;20056;-76
2024/04/01 04:22:23;;;;;;;14.85;5.72;;;;;;;13.29;100.00;98865.47;4993311;28;20123;-78
2024/04/01 04:24:49;;;;;;;13.95;6.40;;;;;;;13.30;100.00;98872.44;5029682;28;20412;-82
2024/04/01 04:27:15;;;;;;;15.18;5.43;;;;;;;13.36;100.00;98866.34;5028089;28;20115;-76
2024/04/01 04:29:41;;;;;;;13.82;5.43;;;;;;;13.41;100.00;98862.06;4994993;28;20103;-76
2024/04/01 04:32:09;;;;;;;12.68;5.72;;;;;;;13.49;100.00;98853.94;5036669;28;20060;-77
2024/04/01 04:34:35;;;;;;;11.18;5.32;;;;;;;13.39;100.00;98863.31;5037165;28;20356;-79
2024/04/01 04:37:01;;;;;;;13.55;5.50;;;;;;;13.52;100.00;98856.22;5027553;28;20052;-79
2024/04/01 04:39:38;;;;;;;15.05;5.40;;;;;;;13.71;100.00;98853.84;5052054;28;20032;-74
2024/04/01 04:42:33;;;;;;;19.13;5.72;;;;;;;13.82;100.00;98854.13;5025317;28;20103;-76
2024/04/01 04:45:00;;;;;;;15.55;5.13;;;;;;;13.64;100.00;98858.34;5000736;28;20483;-80
2024/04/01 04:47:26;;;;;;;15.45;5.00;;;;;;;13.74;100.00;98845.44;5035359;28;20156;-76
2024/04/01 04:49:52;;;;;;;10.43;4.28;;;;;;;13.88;100.00;98837.31;4991884;28;20480;-80
2024/04/01 04:52:18;;;;;;;13.82;4.93;;;;;;;13.91;100.00;98852.09;4993915;28;20083;-80
2024/04/01 04:54:44;;;;;;;14.40;4.47;;;;;;;13.92;100.00;98853.75;5028042;28;20057;-80
2024/04/01 04:57:10;;;;;;;10.75;4.57;;;;;;;14.03;100.00;98858.53;5041885;28;20438;-81
2024/04/01 04:59:36;;;;;;;12.93;4.80;;;;;;;14.09;100.00;98849.72;5011614;28;20045;-81
2024/04/01 05:02:06;;;;;;;13.40;5.50;;;;;;;14.08;100.00;98848.91;5034120;28;20034;-79
2024/04/01 05:04:34;;;;;;;11.77;5.15;;;;;;;14.19;100.00;98842.19;5032725;28;20065;-77
2024/04/01 05:07:03;;;;;;;12.73;4.90;;;;;;;14.25;100.00;98847.56;5041362;28;20037;-78
2024/04/01 05:09:29;;;;;;;19.02;5.47;;;;;;;14.09;100.00;98841.72;5044944;28;20052;-74
2024/04/01 05:11:58;;;;;;;9.63;4.40;;;;;;;14.23;100.00;98844.25;5027475;28;20060;-74
2024/04/01 05:14:24;;;;;;;11.57;4.57;;;;;;;14.27;100.00;98845.50;5051680;28;20125;-76
2024/04/01 05:16:53;;;;;;;24.08;5.88;;;;;;;14.35;100.00;98833.81;5049654;28;20527;-75
2024/04/01 05:19:19;;;;;;;13.25;4.70;;;;;;;14.42;100.00;98843.50;5049710;28;20048;-76
2024/04/01 05:21:45;;;;;;;10.45;4.57;;;;;;;14.48;100.00;98847.22;5017426;28;20097;-79
2024/04/01 05:24:11;;;;;;;15.13;4.88;;;;;;;14.51;100.00;98849.50;5034512;28;20487;-81
2024/04/01 05:26:37;;;;;;;21.05;5.03;;;;;;;14.63;100.00;98842.53;5051060;28;20052;-79
2024/04/01 05:29:03;;;;;;;12.30;5.00;;;;;;;14.69;100.00;98828.34;5034961;28;20045;-73
2024/04/01 05:31:28;;;;;;;15.35;5.65;;;;;;;14.66;100.00;98829.59;5052631;28;20511;-79
2024/04/01 05:33:56;;;;;;;13.85;5.03;;;;;;;14.68;100.00;98832.06;5052659;28;20076;-79
2024/04/01 05:36:25;;;;;;;12.07;5.20;;;;;;;14.69;100.00;98828.34;5035936;28;20048;-80
2024/04/01 05:38:52;;;;;;;19.38;5.40;;;;;;;14.75;100.00;98827.53;5052965;28;20048;-79
2024/04/01 05:41:18;;;;;;;14.20;4.50;;;;;;;14.83;100.00;98824.66;5052088;28;20037;-79
2024/04/01 05:43:44;;;;;;;14.18;4.90;;;;;;;14.90;100.00;98834.31;5052246;28;20047;-78
2024/04/01 05:46:10;;;;;;;12.57;4.75;;;;;;;14.95;100.00;98826.53;5052536;28;20044;-78
2024/04/01 05:48:36;;;;;;;17.40;5.38;;;;;;;14.99;100.00;98830.41;5052564;28;20041;-80
2024/04/01 05:51:02;;;;;;;17.40;5.32;;;;;;;15.09;100.00;98833.53;5052419;28;20045;-76
2024/04/01 05:53:27;;;;;;;11.13;4.57;;;;;;;15.26;100.00;98825.91;5053055;28;20127;-76
2024/04/01 05:55:54;;;;;;;10.32;4.47;;;;;;;15.53;100.00;98819.50;5019897;28;20210;-76
2024/04/01 05:58:22;;;;;;;19.08;5.50;;;;;;;15.55;100.00;98811.25;5018143;28;20053;-75
2024/04/01 06:00:48;;;;;;;15.80;5.28;;;;;;;15.73;100.00;98803.41;4983253;28;20144;-76
2024/04/01 06:03:15;;;;;;;14.75;4.95;;;;;;;15.81;100.00;98800.47;4984924;28;20057;-76
2024/04/01 06:05:41;;;;;;;13.10;5.03;;;;;;;16.05;100.00;98813.97;4986094;28;20419;-76
2024/04/01 06:08:08;;;;;;;18.38;4.50;;;;;;;16.13;100.00;98805.69;5034631;28;20053;-76
2024/04/01 06:10:38;;;;;;;16.00;5.53;;;;;;;16.38;100.00;98809.28;4987070;28;20509;-76
2024/04/01 06:13:13;;;;;;;12.63;5.20;;;;;;;16.42;100.00;98802.44;5005584;28;20063;-75
2024/04/01 06:15:39;;;;;;;16.50;4.30;;;;;;;16.47;100.00;98802.66;5006148;28;20729;-75
2024/04/01 06:18:07;;;;;;;9.95;4.90;;;;;;;16.42;100.00;98807.00;4980728;28;20081;-75
2024/04/01 06:20:33;;;;;;;22.20;5.18;;;;;;;16.34;100.00;98813.44;4961925;28;20072;-76
2024/04/01 06:22:59;;;;;;;21.33;5.28;;;;;;;16.25;100.00;98800.50;4978291;28;20049;-75
2024/04/01 06:25:26;;;;;;;17.83;4.90;;;;;;;16.35;100.00;98800.84;4995043;28;20042;-75
2024/04/01 06:27:55;;;;;;;13.40;4.55;;;;;;;16.41;100.00;98798.13;4978574;28;20073;-75
2024/04/01 06:30:25;;;;;;;12.45;4.93;;;;;;;16.78;100.00;98781.22;5012401;28;20099;-75
2024/04/01 06:32:51;;;;;;;11.48;5.07;;;;;;;16.98;100.00;98786.41;4981243;28;20073;-75
2024/04/01 06:35:20;;;;;;;17.92;5.03;;;;;;;17.24;100.00;98794.22;4981546;28;20138;-75
2024/04/01 06:37:47;;;;;;;11.35;4.75;;;;;;;17.55;100.00;98785.25;5013308;28;20055;-75
2024/04/01 06:40:15;;;;;;;10.70;4.60;;;;;;;17.84;100.00;98793.41;4964987;28;20045;-75
2024/04/01 06:42:44;;;;;;;12.63;4.75;;;;;;;17.91;100.00;98790.66;4998354;28;20063;-75
2024/04/01 06:45:11;;;;;;;9.93;3.90;;;;;;;17.93;100.00;98794.72;4964795;28;20353;-75
2024/04/01 06:47:36;;;;;;;12.52;4.18;;;;;;;18.00;100.00;98787.44;4997121;28;20132;-76
2024/04/01 06:50:04;;;;;;;14.32;3.90;;;;;;;18.05;100.00;98795.59;4996975;28;20550;-76
2024/04/01 06:52:32;;;;;;;15.75;4.25;;;;;;;18.08;100.00;98797.84;4981412;28;20048;-75
2024/04/01 06:54:58;;;;;;;12.95;4.15;;;;;;;18.07;100.00;98780.09;4988685;28;20547;-75
2024/04/01 06:57:24;;;;;;;13.40;4.72;;;;;;;18.21;100.00;98780.72;5033715;28;20060;-75
2024/04/01 06:59:51;;;;;;;14.18;4.22;;;;;;;18.43;100.00;98788.09;5017450;28;20380;-75
2024/04/01 07:02:18;;;;;;;11.77;4.03;;;;;;;18.66;100.00;98781.97;5017557;28;20047;-75
2024/04/01 07:04:45;;;;;;;7.35;3.88;;;;;;;18.80;100.00;98783.41;5017602;28;20436;-75
2024/04/01 07:07:27;;;;;;;10.93;4.00;;;;;;;19.06;100.00;98784.84;5017557;28;20033;-75
2024/04/01 07:09:53;;;;;;;10.10;4.45;;;;;;;19.23;100.00;98783.94;5068743;28;20064;-75
2024/04/01 07:12:19;;;;;;;9.15;4.22;;;;;;;19.42;100.00;98777.38;5019984;28;20067;-75
2024/04/01 07:14:46;;;;;;;18.90;4.72;;;;;;;19.51;97.47;98785.94;5040580;28;20121;-75
2024/04/01 07:17:13;;;;;;;16.23;4.50;;;;;;;19.69;95.23;98775.03;5023510;28;20070;-75
2024/04/01 07:19:39;;;;;;;15.52;4.07;;;;;;;19.88;92.08;98798.09;5023454;28;20060;-75
2024/04/01 07:22:05;;;;;;;8.60;4.35;;;;;;;19.90;90.47;98774.38;5023280;28;20538;-75
2024/04/01 07:24:32;;;;;;;20.30;5.03;;;;;;;20.01;88.43;98757.38;5023360;28;20047;-76
2024/04/01 07:26:58;;;;;;;11.30;3.90;;;;;;;20.26;85.81;98776.78;5040110;28;20079;-76
2024/04/01 07:29:24;;;;;;;14.50;4.50;;;;;;;20.52;81.00;98778.06;4996934;28;20058;-75
2024/04/01 07:31:51;;;;;;;22.88;6.03;;;;;;;20.91;77.60;98769.03;4980480;28;20197;-75
2024/04/01 07:34:17;;;;;;;14.07;5.07;;;;;;;21.52;68.17;98758.94;4965684;28;20104;-75
2024/04/01 07:36:45;;;;;;;23.08;5.85;;;;;;;23.29;60.46;98778.75;4983063;28;20042;-76
2024/04/01 07:39:11;;;;;;;15.27;5.13;;;;;;;24.88;47.88;98782.41;4980395;28;20102;-75
2024/04/01 07:41:37;;;;;;;14.30;5.13;;;;;;;26.35;42.22;98749.19;4983894;28;20546;-76
2024/04/01 07:44:03;;;;;;;15.45;4.72;;;;;;;27.63;36.64;98761.25;4948212;28;20080;-75
2024/04/01 07:46:28;;;;;;;13.82;4.63;;;;;;;28.47;33.45;98760.53;4948250;28;20191;-75
2024/04/01 07:48:54;;;;;;;13.60;4.20;;;;;;;29.10;30.01;98748.09;4964195;28;20484;-76
2024/04/01 07:51:20;;;;;;;11.32;4.15;;;;;;;29.34;28.39;98745.19;4964013;28;20469;-76
2024/04/01 07:53:46;;;;;;;11.15;3.75;;;;;;;29.27;26.73;98753.81;4964273;28;20140;-76
2024/04/01 07:56:12;;;;;;;10.43;4.82;;;;;;;29.57;26.14;98734.09;4963892;28;20068;-76
2024/04/01 07:58:39;;;;;;;13.63;4.20;;;;;;;29.58;25.58;98756.81;4996203;28;20046;-76
2024/04/01 08:01:06;;;;;;;9.88;3.70;;;;;;;29.98;25.23;98720.44;4992202;28;20130;-75
2024/04/01 08:03:32;;;;;;;8.50;4.03;;;;;;;30.22;24.47;98723.78;5020064;28;20485;-75
2024/04/01 08:05:58;;;;;;;8.52;3.80;;;;;;;30.27;24.38;98734.63;5003703;28;20136;-75
2024/04/01 08:08:24;;;;;;;9.88;4.43;;;;;;;30.47;23.45;98744.31;5019799;28;20052;-75
2024/04/01 08:10:50;;;;;;;7.22;4.05;;;;;;;30.61;22.71;98742.38;5036821;28;20205;-75
2024/04/01 08:13:16;;;;;;;9.90;3.95;;;;;;;31.03;22.32;98711.72;5019978;28;20486;-76
2024/04/01 08:15:42;;;;;;;10.82;4.28;;;;;;;31.53;21.64;98729.66;5003609;28;20072;-75
2024/04/01 08:18:08;;;;;;;5.57;3.63;;;;;;;32.34;20.63;98706.94;5019105;28;20534;-75
2024/04/01 08:20:34;;;;;;;11.35;4.10;;;;;;;32.05;20.07;98738.91;5003665;28;20396;-76
2024/04/01 08:23:00;;;;;;;5.78;3.70;;;;;;;32.07;19.70;98707.25;5020022;28;20037;-76
2024/04/01 08:25:27;;;;;;;7.60;3.92;;;;;;;32.81;19.36;98713.47;5019065;28;20040;-75
2024/04/01 08:27:54;;;;;;;9.88;3.45;;;;;;;33.53;18.17;98699.75;4987211;28;20106;-76
2024/04/01 08:30:22;;;;;;;9.68;3.85;;;;;;;34.15;17.68;98714.53;5036684;28;20082;-76
2024/04/01 08:32:48;;;;;;;6.10;3.97;;;;;;;33.72;17.49;98697.41;5036479;28;20075;-75
2024/04/01 08:35:15;;;;;;;5.90;4.10;;;;;;;34.02;17.09;98699.03;5019366;28;20048;-75
2024/04/01 08:37:41;;;;;;;10.80;4.10;;;;;;;33.60;16.56;98746.84;5003380;28;20064;-76
2024/04/01 08:40:08;;;;;;;10.65;4.07;;;;;;;33.01;17.36;98742.28;5019717;28;20166;-76
2024/04/01 08:42:37;;;;;;;4.88;3.55;;;;;;;33.77;16.92;98684.22;5019836;28;20053;-76
2024/04/01 08:45:04;;;;;;;10.02;3.70;;;;;;;33.27;16.58;98710.81;5003357;28;20037;-75
2024/04/01 08:47:34;;;;;;;10.43;3.72;;;;;;;32.79;17.17;98706.66;5003528;28;20360;-75
2024/04/01 08:50:04;;;;;;;9.13;4.03;;;;;;;32.06;17.79;98686.38;5003587;28;20139;-75
2024/04/01 08:52:49;;;;;;;11.68;3.90;;;;;;;31.61;18.52;98692.38;5019773;28;20098;-75
2024/04/01 08:55:19;;;;;;;15.45;4.38;;;;;;;31.03;19.13;98696.09;5019589;28;20048;-76
2024/04/01 08:57:45;;;;;;;16.45;4.70;;;;;;;31.52;18.94;98681.38;5019308;28;20095;-75
2024/04/01 09:00:11;;;;;;;18.50;4.95;;;;;;;31.62;18.98;98699.47;5019603;28;20049;-76
2024/04/01 09:02:38;;;;;;;13.70;4.22;;;;;;;31.74;19.19;98705.97;4998778;28;20057;-76
2024/04/01 09:05:04;;;;;;;15.55;4.80;;;;;;;31.60;19.51;98655.84;4966519;28;20439;-75
2024/04/01 09:07:30;;;;;;;14.48;4.05;;;;;;;32.46;19.15;98648.63;4966284;28;20068;-75
2024/04/01 09:09:56;;;;;;;20.58;5.18;;;;;;;32.25;19.30;98655.84;4967693;28;20045;-75
2024/04/01 09:12:22;;;;;;;11.63;4.85;;;;;;;32.60;19.56;98658.31;4970340;28;20041;-75
2024/04/01 09:14:48;;;;;;;12.25;4.45;;;;;;;33.02;19.04;98636.56;4984252;28;20065;-75
2024/04/01 09:17:24;;;;;;;16.38;5.68;;;;;;;32.98;18.94;98674.97;4983689;28;20041;-75
2024/04/01 09:19:49;;;;;;;18.63;5.15;;;;;;;32.54;18.73;98664.28;4983101;28;20127;-75
2024/04/01 09:22:15;;;;;;;25.33;5.60;;;;;;;32.66;19.25;98620.44;4966115;28;20053;-75
2024/04/01 09:24:41;;;;;;;22.92;6.63;;;;;;;32.86;18.79;98679.47;4982089;28;20037;-75
2024/04/01 09:27:07;;;;;;;17.45;6.20;;;;;;;33.01;18.44;98641.28;4965489;28;20095;-76
2024/04/01 09:29:35;;;;;;;24.42;5.65;;;;;;;31.88;19.28;98628.97;4965810;28;20049;-75
2024/04/01 09:32:01;;;;;;;23.65;4.88;;;;;;;30.93;19.67;98687.31;4981670;28;20041;-76
2024/04/01 09:34:29;;;;;;;18.90;5.50;;;;;;;31.05;20.00;98671.91;4965885;28;20056;-75
2024/04/01 09:36:56;;;;;;;32.70;6.03;;;;;;;31.14;19.94;98661.78;5014612;28;20114;-75
2024/04/01 09:39:23;;;;;;;17.40;5.43;;;;;;;31.27;19.85;98612.59;4988261;28;20040;-75
2024/04/01 09:41:49;;;;;;;15.13;5.20;;;;;;;31.76;19.80;98665.28;5002453;28;20040;-75
2024/04/01 09:44:15;;;;;;;21.88;5.70;;;;;;;31.46;20.00;98597.53;5018713;28;20102;-75
2024/04/01 09:46:41;;;;;;;17.05;5.32;;;;;;;31.34;20.50;98633.00;5002288;28;20138;-75
2024/04/01 09:49:11;;;;;;;22.65;5.63;;;;;;;31.38;20.93;98631.25;5003442;28;20095;-76
2024/04/01 09:51:37;;;;;;;18.40;5.60;;;;;;;30.98;21.07;98610.38;5018817;28;20048;-76
2024/04/01 09:54:03;;;;;;;16.10;5.15;;;;;;;30.96;21.45;98601.66;5018636;28;20051;-75
2024/04/01 09:56:54;;;;;;;24.95;5.88;;;;;;;30.70;21.70;98600.69;5019097;28;20041;-76
2024/04/01 10:00:10;;;;;;;17.98;5.18;;;;;;;31.24;21.52;98627.78;5018445;28;20064;-75
2024/04/01 10:02:56;;;;;;;26.33;6.10;;;;;;;31.40;21.32;98601.53;5030456;28;20079;-75
2024/04/01 10:05:41;;;;;;;21.17;5.65;;;;;;;31.44;21.39;98577.84;5051428;28;20084;-75
2024/04/01 10:08:25;;;;;;;16.63;4.90;;;;;;;31.66;21.24;98593.38;5013583;28;20041;-75
2024/04/01 10:11:09;;;;;;;21.13;5.50;;;;;;;32.04;20.60;98586.19;4997454;28;20496;-75
2024/04/01 10:14:08;;;;;;;14.20;4.72;;;;;;;32.80;20.26;98563.28;4997504;28;20103;-75
2024/04/01 10:17:02;;;;;;;17.10;4.72;;;;;;;32.13;20.50;98582.31;4997604;28;20056;-75
2024/04/01 10:20:07;;;;;;;21.58;5.03;;;;;;;30.71;21.95;98594.06;4997339;28;20045;-75
2024/04/01 10:22:41;;;;;;;15.52;5.93;;;;;;;30.15;22.77;98596.56;4997011;28;20365;-75
2024/04/01 10:25:29;;;;;;;22.38;5.10;;;;;;;30.29;22.94;98606.34;4997093;28;20399;-75
2024/04/01 10:28:13;;;;;;;25.77;6.18;;;;;;;29.68;23.03;98573.25;5013739;28;20132;-75
2024/04/01 10:31:05;;;;;;;17.55;5.78;;;;;;;29.73;23.24;98619.69;4997532;28;20342;-75
2024/04/01 10:33:46;;;;;;;11.23;5.15;;;;;;;29.78;23.48;98591.38;4981053;28;20049;-75
2024/04/01 10:36:37;;;;;;;16.50;5.70;;;;;;;30.52;22.80;98593.47;4997124;28;20081;-75
2024/04/01 10:39:24;;;;;;;19.20;5.72;;;;;;;30.42;22.22;98646.59;4996350;28;20048;-75
2024/04/01 10:42:09;;;;;;;23.63;5.82;;;;;;;30.56;21.79;98591.72;5034136;28;20040;-75
2024/04/01 10:45:02;;;;;;;15.57;5.07;;;;;;;30.39;21.59;98591.59;5034080;28;20041;-75
2024/04/01 10:47:56;;;;;;;13.18;5.10;;;;;;;30.67;21.65;98554.72;5034487;28;20118;-75
2024/04/01 10:51:07;;;;;;;12.95;4.53;;;;;;;30.94;21.19;98576.47;5013173;28;20045;-75
2024/04/01 10:54:12;;;;;;;13.63;4.70;;;;;;;31.09;20.13;98587.06;5002224;28;20570;-75
2024/04/01 10:57:19;;;;;;;10.30;3.28;;;;;;;31.09;19.18;98576.88;4946169;28;20041;-75
2024/04/01 11:00:18;;;;;;;17.70;4.00;;;;;;;30.06;19.46;98606.63;4904486;29;20090;-75
2024/04/01 11:02:44;;;;;;;16.55;4.30;;;;;;;29.54;18.83;98610.75;4939548;29;20457;-75
2024/04/01 11:05:51;;;;;;;9.55;3.30;;;;;;;29.57;18.92;98575.38;4978152;28;20050;-76
2024/04/01 11:08:41;;;;;;;9.68;3.63;;;;;;;29.11;19.28;98596.56;4965797;28;20050;-76
2024/04/01 11:11:27;;;;;;;6.00;3.20;;;;;;;28.68;19.65;98573.31;4949478;28;20049;-76
2024/04/01 11:13:58;;;;;;;15.70;3.80;;;;;;;28.29;20.58;98574.78;4962895;28;20155;-75
2024/04/01 11:16:28;;;;;;;9.93;3.22;;;;;;;28.13;20.16;98598.78;4965144;28;20105;-76
2024/04/01 11:19:11;;;;;;;13.13;3.55;;;;;;;27.84;20.84;98606.28;4948825;28;20432;-75
2024/04/01 11:21:57;;;;;;;15.55;4.38;;;;;;;27.98;20.85;98564.34;4993786;28;20046;-76
2024/04/01 11:24:40;;;;;;;11.05;3.58;;;;;;;27.89;20.84;98587.16;4994131;28;20461;-74
2024/04/01 11:27:48;;;;;;;9.27;3.22;;;;;;;27.87;21.24;98551.97;4961554;28;20050;-76
2024/04/01 11:30:26;;;;;;;8.75;2.92;;;;;;;27.98;21.23;98526.13;4984726;28;20053;-72
2024/04/01 11:33:07;;;;;;;11.63;3.38;;;;;;;27.35;21.12;98560.31;4979194;28;20090;-73
2024/04/01 11:35:48;;;;;;;10.75;2.70;;;;;;;27.05;21.92;98529.81;4961449;28;20535;-73